sensor_id;sensor_type;location;lat;lon;timestamp;temperature;humidity
8953;DHT22;4511;50.890;8.054;2022-09-03T00:00:45;18.20;74.40
8953;DHT22;4511;50.890;8.054;2022-09-03T00:03:16;18.20;74.40
8953;DHT22;4511;50.890;8.054;2022-09-03T00:05:48;18.20;74.60
8953;DHT22;4511;50.890;8.054;2022-09-03T00:08:20;18.20;74.60
8953;DHT22;4511;50.890;8.054;2022-09-03T00:10:52;18.10;74.80
8953;DHT22;4511;50.890;8.054;2022-09-03T00:13:23;18.10;75.00
8953;DHT22;4511;50.890;8.054;2022-09-03T00:15:52;18.20;75.10
8953;DHT22;4511;50.890;8.054;2022-09-03T00:18:23;18.10;75.40
8953;DHT22;4511;50.890;8.054;2022-09-03T00:20:55;17.90;76.40
8953;DHT22;4511;50.890;8.054;2022-09-03T00:23:25;18.20;81.60
8953;DHT22;4511;50.890;8.054;2022-09-03T00:25:56;18.10;76.30
8953;DHT22;4511;50.890;8.054;2022-09-03T00:28:33;18.00;77.40
8953;DHT22;4511;50.890;8.054;2022-09-03T00:31:09;17.90;76.80
8953;DHT22;4511;50.890;8.054;2022-09-03T00:33:39;17.90;77.00
8953;DHT22;4511;50.890;8.054;2022-09-03T00:36:14;17.90;77.30
8953;DHT22;4511;50.890;8.054;2022-09-03T00:38:42;17.90;77.50
8953;DHT22;4511;50.890;8.054;2022-09-03T00:41:19;17.90;77.80
8953;DHT22;4511;50.890;8.054;2022-09-03T00:44:04;17.80;78.00
8953;DHT22;4511;50.890;8.054;2022-09-03T00:46:40;17.80;78.20
8953;DHT22;4511;50.890;8.054;2022-09-03T00:49:24;17.80;78.20
8953;DHT22;4511;50.890;8.054;2022-09-03T00:51:58;17.80;78.50
8953;DHT22;4511;50.890;8.054;2022-09-03T00:54:31;17.70;78.80
8953;DHT22;4511;50.890;8.054;2022-09-03T00:57:14;17.70;79.30
8953;DHT22;4511;50.890;8.054;2022-09-03T00:59:52;17.60;79.10
8953;DHT22;4511;50.890;8.054;2022-09-03T01:02:29;17.70;79.20
8953;DHT22;4511;50.890;8.054;2022-09-03T01:05:06;17.50;79.40
8953;DHT22;4511;50.890;8.054;2022-09-03T01:07:41;17.60;80.00
8953;DHT22;4511;50.890;8.054;2022-09-03T01:10:17;17.50;80.20
8953;DHT22;4511;50.890;8.054;2022-09-03T01:12:55;17.60;80.40
8953;DHT22;4511;50.890;8.054;2022-09-03T01:15:30;17.60;80.50
8953;DHT22;4511;50.890;8.054;2022-09-03T01:18:10;17.60;80.80
8953;DHT22;4511;50.890;8.054;2022-09-03T01:20:49;17.50;80.90
8953;DHT22;4511;50.890;8.054;2022-09-03T01:26:20;17.40;81.60
8953;DHT22;4511;50.890;8.054;2022-09-03T01:28:57;17.40;81.90
8953;DHT22;4511;50.890;8.054;2022-09-03T01:31:36;17.40;82.20
8953;DHT22;4511;50.890;8.054;2022-09-03T01:34:15;17.30;82.50
8953;DHT22;4511;50.890;8.054;2022-09-03T01:36:50;17.30;83.20
8953;DHT22;4511;50.890;8.054;2022-09-03T01:39:28;17.20;83.30
8953;DHT22;4511;50.890;8.054;2022-09-03T01:42:10;17.20;84.00
8953;DHT22;4511;50.890;8.054;2022-09-03T01:44:50;17.10;84.30
8953;DHT22;4511;50.890;8.054;2022-09-03T01:47:30;17.10;84.50
8953;DHT22;4511;50.890;8.054;2022-09-03T01:50:04;17.10;84.60
8953;DHT22;4511;50.890;8.054;2022-09-03T01:52:40;17.20;85.00
8953;DHT22;4511;50.890;8.054;2022-09-03T01:55:18;17.30;85.00
8953;DHT22;4511;50.890;8.054;2022-09-03T01:57:53;17.10;85.20
8953;DHT22;4511;50.890;8.054;2022-09-03T02:00:24;17.10;85.60
8953;DHT22;4511;50.890;8.054;2022-09-03T02:02:52;17.00;86.00
8953;DHT22;4511;50.890;8.054;2022-09-03T02:05:20;17.10;86.30
8953;DHT22;4511;50.890;8.054;2022-09-03T02:07:54;17.10;86.30
8953;DHT22;4511;50.890;8.054;2022-09-03T02:10:25;17.00;86.80
8953;DHT22;4511;50.890;8.054;2022-09-03T02:12:57;17.00;87.00
8953;DHT22;4511;50.890;8.054;2022-09-03T02:15:27;17.00;87.30
8953;DHT22;4511;50.890;8.054;2022-09-03T02:18:00;17.00;87.50
8953;DHT22;4511;50.890;8.054;2022-09-03T02:20:28;17.00;87.90
8953;DHT22;4511;50.890;8.054;2022-09-03T02:22:56;17.00;88.40
8953;DHT22;4511;50.890;8.054;2022-09-03T02:25:36;16.90;88.80
8953;DHT22;4511;50.890;8.054;2022-09-03T02:28:04;16.80;89.10
8953;DHT22;4511;50.890;8.054;2022-09-03T02:30:33;16.90;89.30
8953;DHT22;4511;50.890;8.054;2022-09-03T02:33:00;16.80;89.60
8953;DHT22;4511;50.890;8.054;2022-09-03T02:35:27;16.70;90.00
8953;DHT22;4511;50.890;8.054;2022-09-03T02:37:54;16.80;90.20
8953;DHT22;4511;50.890;8.054;2022-09-03T02:40:21;16.70;90.30
8953;DHT22;4511;50.890;8.054;2022-09-03T02:42:48;16.80;90.40
8953;DHT22;4511;50.890;8.054;2022-09-03T02:45:21;16.80;90.50
8953;DHT22;4511;50.890;8.054;2022-09-03T02:47:54;16.80;90.60
8953;DHT22;4511;50.890;8.054;2022-09-03T02:50:21;16.70;90.80
8953;DHT22;4511;50.890;8.054;2022-09-03T02:52:47;16.80;90.90
8953;DHT22;4511;50.890;8.054;2022-09-03T02:55:15;16.80;90.90
8953;DHT22;4511;50.890;8.054;2022-09-03T02:57:41;17.10;91.80
8953;DHT22;4511;50.890;8.054;2022-09-03T03:00:09;17.30;91.20
8953;DHT22;4511;50.890;8.054;2022-09-03T03:02:35;17.40;90.80
8953;DHT22;4511;50.890;8.054;2022-09-03T03:05:04;17.40;90.40
8953;DHT22;4511;50.890;8.054;2022-09-03T03:07:36;17.30;90.40
8953;DHT22;4511;50.890;8.054;2022-09-03T03:10:03;17.20;90.50
8953;DHT22;4511;50.890;8.054;2022-09-03T03:12:30;17.10;90.70
8953;DHT22;4511;50.890;8.054;2022-09-03T03:14:57;17.00;91.00
8953;DHT22;4511;50.890;8.054;2022-09-03T03:17:24;16.80;91.10
8953;DHT22;4511;50.890;8.054;2022-09-03T03:19:50;16.90;92.10
8953;DHT22;4511;50.890;8.054;2022-09-03T03:22:18;17.80;90.70
8953;DHT22;4511;50.890;8.054;2022-09-03T03:24:45;17.20;90.40
8953;DHT22;4511;50.890;8.054;2022-09-03T03:27:14;17.20;90.80
8953;DHT22;4511;50.890;8.054;2022-09-03T03:29:41;17.10;91.10
8953;DHT22;4511;50.890;8.054;2022-09-03T03:32:08;17.00;91.10
8953;DHT22;4511;50.890;8.054;2022-09-03T03:34:34;16.90;91.40
8953;DHT22;4511;50.890;8.054;2022-09-03T03:37:02;16.90;91.60
8953;DHT22;4511;50.890;8.054;2022-09-03T03:39:30;16.80;91.80
8953;DHT22;4511;50.890;8.054;2022-09-03T03:41:56;16.70;91.90
8953;DHT22;4511;50.890;8.054;2022-09-03T03:44:23;16.70;92.10
8953;DHT22;4511;50.890;8.054;2022-09-03T03:46:50;16.70;92.30
8953;DHT22;4511;50.890;8.054;2022-09-03T03:49:17;16.60;92.40
8953;DHT22;4511;50.890;8.054;2022-09-03T03:51:44;16.60;92.60
8953;DHT22;4511;50.890;8.054;2022-09-03T03:54:11;16.60;92.70
8953;DHT22;4511;50.890;8.054;2022-09-03T03:56:39;16.60;92.90
8953;DHT22;4511;50.890;8.054;2022-09-03T03:59:06;16.60;93.10
8953;DHT22;4511;50.890;8.054;2022-09-03T04:01:32;16.50;93.20
8953;DHT22;4511;50.890;8.054;2022-09-03T04:03:59;16.50;93.40
8953;DHT22;4511;50.890;8.054;2022-09-03T04:06:26;16.50;93.60
8953;DHT22;4511;50.890;8.054;2022-09-03T04:08:53;16.30;93.70
8953;DHT22;4511;50.890;8.054;2022-09-03T04:11:21;16.30;93.70
8953;DHT22;4511;50.890;8.054;2022-09-03T04:13:50;16.40;94.40
8953;DHT22;4511;50.890;8.054;2022-09-03T04:16:18;16.30;94.20
8953;DHT22;4511;50.890;8.054;2022-09-03T04:18:46;16.40;94.40
8953;DHT22;4511;50.890;8.054;2022-09-03T04:21:16;16.40;94.60
8953;DHT22;4511;50.890;8.054;2022-09-03T04:23:45;16.30;94.80
8953;DHT22;4511;50.890;8.054;2022-09-03T04:26:14;16.30;94.90
8953;DHT22;4511;50.890;8.054;2022-09-03T04:28:41;16.40;95.00
8953;DHT22;4511;50.890;8.054;2022-09-03T04:31:12;16.40;95.00
8953;DHT22;4511;50.890;8.054;2022-09-03T04:33:40;16.40;95.00
8953;DHT22;4511;50.890;8.054;2022-09-03T04:36:08;16.40;95.30
8953;DHT22;4511;50.890;8.054;2022-09-03T04:38:37;16.40;95.30
8953;DHT22;4511;50.890;8.054;2022-09-03T04:41:05;16.40;95.40
8953;DHT22;4511;50.890;8.054;2022-09-03T04:43:32;16.40;95.30
8953;DHT22;4511;50.890;8.054;2022-09-03T04:46:00;16.50;95.50
8953;DHT22;4511;50.890;8.054;2022-09-03T04:48:29;16.50;95.40
8953;DHT22;4511;50.890;8.054;2022-09-03T04:51:02;16.40;95.50
8953;DHT22;4511;50.890;8.054;2022-09-03T04:53:31;16.50;95.50
8953;DHT22;4511;50.890;8.054;2022-09-03T04:55:58;16.40;95.70
8953;DHT22;4511;50.890;8.054;2022-09-03T04:58:25;16.30;96.00
8953;DHT22;4511;50.890;8.054;2022-09-03T05:00:51;16.30;96.30
8953;DHT22;4511;50.890;8.054;2022-09-03T05:03:18;16.30;96.40
8953;DHT22;4511;50.890;8.054;2022-09-03T05:05:52;16.30;96.50
8953;DHT22;4511;50.890;8.054;2022-09-03T05:08:19;16.30;96.70
8953;DHT22;4511;50.890;8.054;2022-09-03T05:10:46;16.30;96.70
8953;DHT22;4511;50.890;8.054;2022-09-03T05:13:13;16.20;96.90
8953;DHT22;4511;50.890;8.054;2022-09-03T05:15:40;16.20;97.10
8953;DHT22;4511;50.890;8.054;2022-09-03T05:18:10;16.30;97.10
8953;DHT22;4511;50.890;8.054;2022-09-03T05:20:37;16.40;97.00
8953;DHT22;4511;50.890;8.054;2022-09-03T05:23:05;16.40;97.10
8953;DHT22;4511;50.890;8.054;2022-09-03T05:25:32;16.40;97.20
8953;DHT22;4511;50.890;8.054;2022-09-03T05:28:00;16.40;97.20
8953;DHT22;4511;50.890;8.054;2022-09-03T05:30:27;16.40;97.30
8953;DHT22;4511;50.890;8.054;2022-09-03T05:32:54;16.50;97.30
8953;DHT22;4511;50.890;8.054;2022-09-03T05:35:21;16.50;97.20
8953;DHT22;4511;50.890;8.054;2022-09-03T05:37:48;16.50;97.00
8953;DHT22;4511;50.890;8.054;2022-09-03T05:40:16;16.70;97.10
8953;DHT22;4511;50.890;8.054;2022-09-03T05:42:43;16.80;97.00
8953;DHT22;4511;50.890;8.054;2022-09-03T05:45:10;16.80;96.80
8953;DHT22;4511;50.890;8.054;2022-09-03T05:47:38;16.90;96.70
8953;DHT22;4511;50.890;8.054;2022-09-03T05:50:06;16.90;96.70
8953;DHT22;4511;50.890;8.054;2022-09-03T05:52:35;17.00;96.70
8953;DHT22;4511;50.890;8.054;2022-09-03T05:55:02;17.00;96.70
8953;DHT22;4511;50.890;8.054;2022-09-03T05:57:30;17.00;96.70
8953;DHT22;4511;50.890;8.054;2022-09-03T05:59:58;17.00;96.70
8953;DHT22;4511;50.890;8.054;2022-09-03T06:02:24;17.10;96.70
8953;DHT22;4511;50.890;8.054;2022-09-03T06:04:51;17.10;96.60
8953;DHT22;4511;50.890;8.054;2022-09-03T06:07:18;17.20;96.70
8953;DHT22;4511;50.890;8.054;2022-09-03T06:09:45;17.30;96.50
8953;DHT22;4511;50.890;8.054;2022-09-03T06:12:12;17.30;96.40
8953;DHT22;4511;50.890;8.054;2022-09-03T06:14:40;17.30;96.50
8953;DHT22;4511;50.890;8.054;2022-09-03T06:17:07;17.40;97.20
8953;DHT22;4511;50.890;8.054;2022-09-03T06:19:35;18.00;95.90
8953;DHT22;4511;50.890;8.054;2022-09-03T06:22:02;18.20;95.20
8953;DHT22;4511;50.890;8.054;2022-09-03T06:24:29;18.30;95.00
8953;DHT22;4511;50.890;8.054;2022-09-03T06:26:56;18.20;94.90
8953;DHT22;4511;50.890;8.054;2022-09-03T06:29:22;18.40;94.80
8953;DHT22;4511;50.890;8.054;2022-09-03T06:31:50;18.40;94.80
8953;DHT22;4511;50.890;8.054;2022-09-03T06:34:17;18.30;94.70
8953;DHT22;4511;50.890;8.054;2022-09-03T06:36:45;18.20;94.80
8953;DHT22;4511;50.890;8.054;2022-09-03T06:39:11;18.30;94.70
8953;DHT22;4511;50.890;8.054;2022-09-03T06:41:38;18.30;94.70
8953;DHT22;4511;50.890;8.054;2022-09-03T06:44:06;18.30;94.70
8953;DHT22;4511;50.890;8.054;2022-09-03T06:46:37;18.20;94.70
8953;DHT22;4511;50.890;8.054;2022-09-03T06:49:08;18.10;94.60
8953;DHT22;4511;50.890;8.054;2022-09-03T06:51:36;18.10;94.60
8953;DHT22;4511;50.890;8.054;2022-09-03T06:54:05;18.10;95.00
8953;DHT22;4511;50.890;8.054;2022-09-03T06:56:34;18.10;95.00
8953;DHT22;4511;50.890;8.054;2022-09-03T06:59:04;18.20;95.00
8953;DHT22;4511;50.890;8.054;2022-09-03T07:01:33;18.30;95.10
8953;DHT22;4511;50.890;8.054;2022-09-03T07:04:01;18.30;94.70
8953;DHT22;4511;50.890;8.054;2022-09-03T07:06:31;18.50;94.80
8953;DHT22;4511;50.890;8.054;2022-09-03T07:08:58;18.60;94.60
8953;DHT22;4511;50.890;8.054;2022-09-03T07:11:27;18.70;94.60
8953;DHT22;4511;50.890;8.054;2022-09-03T07:13:56;18.70;94.60
8953;DHT22;4511;50.890;8.054;2022-09-03T07:16:24;18.80;94.70
8953;DHT22;4511;50.890;8.054;2022-09-03T07:18:52;18.80;94.40
8953;DHT22;4511;50.890;8.054;2022-09-03T07:21:20;18.70;94.80
8953;DHT22;4511;50.890;8.054;2022-09-03T07:23:49;18.60;94.60
8953;DHT22;4511;50.890;8.054;2022-09-03T07:26:19;18.50;94.80
8953;DHT22;4511;50.890;8.054;2022-09-03T07:28:46;18.50;94.80
8953;DHT22;4511;50.890;8.054;2022-09-03T07:31:16;18.50;95.00
8953;DHT22;4511;50.890;8.054;2022-09-03T07:33:44;18.40;94.80
8953;DHT22;4511;50.890;8.054;2022-09-03T07:36:13;18.60;94.80
8953;DHT22;4511;50.890;8.054;2022-09-03T07:38:40;18.50;94.80
8953;DHT22;4511;50.890;8.054;2022-09-03T07:41:10;18.60;94.80
8953;DHT22;4511;50.890;8.054;2022-09-03T07:43:38;18.80;94.90
8953;DHT22;4511;50.890;8.054;2022-09-03T07:46:05;18.90;95.00
8953;DHT22;4511;50.890;8.054;2022-09-03T07:48:33;19.00;94.80
8953;DHT22;4511;50.890;8.054;2022-09-03T07:50:59;19.00;94.70
8953;DHT22;4511;50.890;8.054;2022-09-03T07:53:27;19.10;94.80
8953;DHT22;4511;50.890;8.054;2022-09-03T07:56:00;19.30;94.60
8953;DHT22;4511;50.890;8.054;2022-09-03T07:58:29;19.30;94.50
8953;DHT22;4511;50.890;8.054;2022-09-03T08:00:56;19.40;94.20
8953;DHT22;4511;50.890;8.054;2022-09-03T08:03:23;19.40;94.20
8953;DHT22;4511;50.890;8.054;2022-09-03T08:05:50;19.50;94.00
8953;DHT22;4511;50.890;8.054;2022-09-03T08:08:17;19.50;94.20
8953;DHT22;4511;50.890;8.054;2022-09-03T08:10:44;19.60;94.10
8953;DHT22;4511;50.890;8.054;2022-09-03T08:13:10;19.60;93.90
8953;DHT22;4511;50.890;8.054;2022-09-03T08:15:39;19.60;93.80
8953;DHT22;4511;50.890;8.054;2022-09-03T08:18:07;19.60;94.00
8953;DHT22;4511;50.890;8.054;2022-09-03T08:20:35;19.80;93.70
8953;DHT22;4511;50.890;8.054;2022-09-03T08:23:04;20.00;93.70
8953;DHT22;4511;50.890;8.054;2022-09-03T08:25:31;19.80;93.60
8953;DHT22;4511;50.890;8.054;2022-09-03T08:27:58;19.70;93.50
8953;DHT22;4511;50.890;8.054;2022-09-03T08:30:25;19.80;93.80
8953;DHT22;4511;50.890;8.054;2022-09-03T08:32:54;19.80;93.60
8953;DHT22;4511;50.890;8.054;2022-09-03T08:35:21;19.80;93.90
8953;DHT22;4511;50.890;8.054;2022-09-03T08:37:48;19.80;93.90
8953;DHT22;4511;50.890;8.054;2022-09-03T08:40:18;19.80;93.90
8953;DHT22;4511;50.890;8.054;2022-09-03T08:42:55;19.90;93.90
8953;DHT22;4511;50.890;8.054;2022-09-03T08:45:25;19.90;93.80
8953;DHT22;4511;50.890;8.054;2022-09-03T08:48:00;19.90;93.70
8953;DHT22;4511;50.890;8.054;2022-09-03T08:50:31;19.80;93.70
8953;DHT22;4511;50.890;8.054;2022-09-03T08:53:03;19.90;93.80
8953;DHT22;4511;50.890;8.054;2022-09-03T08:55:35;19.90;93.50
8953;DHT22;4511;50.890;8.054;2022-09-03T08:58:10;19.80;93.80
8953;DHT22;4511;50.890;8.054;2022-09-03T09:00:45;19.90;93.80
8953;DHT22;4511;50.890;8.054;2022-09-03T09:03:32;20.20;93.60
8953;DHT22;4511;50.890;8.054;2022-09-03T09:06:07;20.40;93.50
8953;DHT22;4511;50.890;8.054;2022-09-03T09:08:44;20.50;93.10
8953;DHT22;4511;50.890;8.054;2022-09-03T09:11:21;20.30;92.90
8953;DHT22;4511;50.890;8.054;2022-09-03T09:13:57;20.30;93.40
8953;DHT22;4511;50.890;8.054;2022-09-03T09:16:33;20.30;93.40
8953;DHT22;4511;50.890;8.054;2022-09-03T09:19:12;20.40;93.30
8953;DHT22;4511;50.890;8.054;2022-09-03T09:21:46;20.40;93.30
8953;DHT22;4511;50.890;8.054;2022-09-03T09:24:20;20.50;93.40
8953;DHT22;4511;50.890;8.054;2022-09-03T09:26:48;20.50;93.10
8953;DHT22;4511;50.890;8.054;2022-09-03T09:29:15;20.60;93.20
8953;DHT22;4511;50.890;8.054;2022-09-03T09:31:42;20.70;93.10
8953;DHT22;4511;50.890;8.054;2022-09-03T09:34:11;20.70;92.80
8953;DHT22;4511;50.890;8.054;2022-09-03T09:36:42;20.70;92.70
8953;DHT22;4511;50.890;8.054;2022-09-03T09:39:12;20.70;92.80
8953;DHT22;4511;50.890;8.054;2022-09-03T09:41:41;20.80;93.00
8953;DHT22;4511;50.890;8.054;2022-09-03T09:44:16;20.90;92.90
8953;DHT22;4511;50.890;8.054;2022-09-03T09:46:44;21.10;92.80
8953;DHT22;4511;50.890;8.054;2022-09-03T09:49:28;21.40;92.40
8953;DHT22;4511;50.890;8.054;2022-09-03T09:52:00;21.80;92.10
8953;DHT22;4511;50.890;8.054;2022-09-03T09:54:27;21.80;91.50
8953;DHT22;4511;50.890;8.054;2022-09-03T09:56:59;21.80;91.80
8953;DHT22;4511;50.890;8.054;2022-09-03T09:59:26;21.80;91.80
8953;DHT22;4511;50.890;8.054;2022-09-03T10:02:03;21.90;91.90
8953;DHT22;4511;50.890;8.054;2022-09-03T10:04:34;22.00;91.90
8953;DHT22;4511;50.890;8.054;2022-09-03T10:07:04;22.10;91.90
8953;DHT22;4511;50.890;8.054;2022-09-03T10:09:43;22.20;91.50
8953;DHT22;4511;50.890;8.054;2022-09-03T10:12:15;22.10;92.00
8953;DHT22;4511;50.890;8.054;2022-09-03T10:14:54;22.10;92.00
8953;DHT22;4511;50.890;8.054;2022-09-03T10:17:26;22.00;92.10
8953;DHT22;4511;50.890;8.054;2022-09-03T10:20:02;21.80;92.30
8953;DHT22;4511;50.890;8.054;2022-09-03T10:22:53;21.70;92.30
8953;DHT22;4511;50.890;8.054;2022-09-03T10:25:21;21.50;92.30
8953;DHT22;4511;50.890;8.054;2022-09-03T10:27:50;21.50;92.30
8953;DHT22;4511;50.890;8.054;2022-09-03T10:30:18;21.70;92.20
8953;DHT22;4511;50.890;8.054;2022-09-03T10:32:53;21.60;92.10
8953;DHT22;4511;50.890;8.054;2022-09-03T10:35:28;21.50;92.30
8953;DHT22;4511;50.890;8.054;2022-09-03T10:38:05;21.60;92.60
8953;DHT22;4511;50.890;8.054;2022-09-03T10:40:37;21.80;92.30
8953;DHT22;4511;50.890;8.054;2022-09-03T10:43:16;21.90;92.60
8953;DHT22;4511;50.890;8.054;2022-09-03T10:45:56;21.70;93.10
8953;DHT22;4511;50.890;8.054;2022-09-03T10:51:27;21.50;93.20
8953;DHT22;4511;50.890;8.054;2022-09-03T10:54:14;21.50;93.40
8953;DHT22;4511;50.890;8.054;2022-09-03T10:56:53;21.60;93.30
8953;DHT22;4511;50.890;8.054;2022-09-03T10:59:33;21.80;93.50
8953;DHT22;4511;50.890;8.054;2022-09-03T11:02:16;21.90;93.40
8953;DHT22;4511;50.890;8.054;2022-09-03T11:04:51;21.80;93.50
8953;DHT22;4511;50.890;8.054;2022-09-03T11:07:26;21.80;93.30
8953;DHT22;4511;50.890;8.054;2022-09-03T11:10:00;21.90;93.40
8953;DHT22;4511;50.890;8.054;2022-09-03T11:12:31;21.90;93.20
8953;DHT22;4511;50.890;8.054;2022-09-03T11:15:01;21.90;93.40
8953;DHT22;4511;50.890;8.054;2022-09-03T11:17:35;21.70;93.30
8953;DHT22;4511;50.890;8.054;2022-09-03T11:20:11;21.80;93.70
8953;DHT22;4511;50.890;8.054;2022-09-03T11:22:42;21.90;93.70
8953;DHT22;4511;50.890;8.054;2022-09-03T11:25:13;22.00;93.60
8953;DHT22;4511;50.890;8.054;2022-09-03T11:27:51;22.10;93.70
8953;DHT22;4511;50.890;8.054;2022-09-03T11:30:23;22.20;93.80
8953;DHT22;4511;50.890;8.054;2022-09-03T11:32:53;22.20;93.60
8953;DHT22;4511;50.890;8.054;2022-09-03T11:35:26;22.20;93.70
8953;DHT22;4511;50.890;8.054;2022-09-03T11:37:58;22.40;93.50
8953;DHT22;4511;50.890;8.054;2022-09-03T11:40:31;22.50;93.10
8953;DHT22;4511;50.890;8.054;2022-09-03T11:43:06;22.70;93.20
8953;DHT22;4511;50.890;8.054;2022-09-03T11:45:35;22.80;93.10
8953;DHT22;4511;50.890;8.054;2022-09-03T11:48:16;22.90;93.00
8953;DHT22;4511;50.890;8.054;2022-09-03T11:50:51;23.00;92.80
8953;DHT22;4511;50.890;8.054;2022-09-03T11:53:25;23.20;93.10
8953;DHT22;4511;50.890;8.054;2022-09-03T11:55:58;23.20;93.40
8953;DHT22;4511;50.890;8.054;2022-09-03T11:58:28;23.20;93.60
8953;DHT22;4511;50.890;8.054;2022-09-03T12:00:57;23.20;94.20
8953;DHT22;4511;50.890;8.054;2022-09-03T12:03:28;23.30;93.70
8953;DHT22;4511;50.890;8.054;2022-09-03T12:06:12;23.50;94.00
8953;DHT22;4511;50.890;8.054;2022-09-03T12:08:56;23.50;94.20
8953;DHT22;4511;50.890;8.054;2022-09-03T12:11:47;23.70;94.00
8953;DHT22;4511;50.890;8.054;2022-09-03T12:14:21;23.90;93.40
8953;DHT22;4511;50.890;8.054;2022-09-03T12:17:19;23.80;93.60
8953;DHT22;4511;50.890;8.054;2022-09-03T12:19:51;24.00;93.80
8953;DHT22;4511;50.890;8.054;2022-09-03T12:22:20;24.50;93.60
8953;DHT22;4511;50.890;8.054;2022-09-03T12:24:49;24.80;93.00
8953;DHT22;4511;50.890;8.054;2022-09-03T12:27:19;24.90;92.60
8953;DHT22;4511;50.890;8.054;2022-09-03T12:29:53;25.00;92.80
8953;DHT22;4511;50.890;8.054;2022-09-03T12:32:25;25.00;92.30
8953;DHT22;4511;50.890;8.054;2022-09-03T12:34:54;24.90;92.20
8953;DHT22;4511;50.890;8.054;2022-09-03T12:37:22;25.00;91.80
8953;DHT22;4511;50.890;8.054;2022-09-03T12:39:52;25.10;91.80
8953;DHT22;4511;50.890;8.054;2022-09-03T12:42:23;24.80;92.00
8953;DHT22;4511;50.890;8.054;2022-09-03T12:44:51;24.80;92.20
8953;DHT22;4511;50.890;8.054;2022-09-03T12:47:20;25.00;91.90
8953;DHT22;4511;50.890;8.054;2022-09-03T12:49:48;25.50;91.80
8953;DHT22;4511;50.890;8.054;2022-09-03T12:52:19;26.10;90.80
8953;DHT22;4511;50.890;8.054;2022-09-03T12:54:53;26.40;90.00
8953;DHT22;4511;50.890;8.054;2022-09-03T12:57:23;26.40;89.90
8953;DHT22;4511;50.890;8.054;2022-09-03T12:59:54;26.30;89.90
8953;DHT22;4511;50.890;8.054;2022-09-03T13:02:26;26.40;89.40
8953;DHT22;4511;50.890;8.054;2022-09-03T13:04:53;25.90;90.30
8953;DHT22;4511;50.890;8.054;2022-09-03T13:07:26;26.00;90.60
8953;DHT22;4511;50.890;8.054;2022-09-03T13:10:02;26.30;89.90
8953;DHT22;4511;50.890;8.054;2022-09-03T13:12:32;26.60;88.90
8953;DHT22;4511;50.890;8.054;2022-09-03T13:15:05;27.40;87.40
8953;DHT22;4511;50.890;8.054;2022-09-03T13:17:54;28.30;86.20
8953;DHT22;4511;50.890;8.054;2022-09-03T13:20:33;28.00;84.70
8953;DHT22;4511;50.890;8.054;2022-09-03T13:23:09;27.80;85.40
8953;DHT22;4511;50.890;8.054;2022-09-03T13:25:49;27.80;86.10
8953;DHT22;4511;50.890;8.054;2022-09-03T13:28:28;28.30;85.80
8953;DHT22;4511;50.890;8.054;2022-09-03T13:30:59;28.90;83.20
8953;DHT22;4511;50.890;8.054;2022-09-03T13:33:33;29.20;82.40
8953;DHT22;4511;50.890;8.054;2022-09-03T13:36:09;29.30;81.70
8953;DHT22;4511;50.890;8.054;2022-09-03T13:38:47;29.90;80.50
8953;DHT22;4511;50.890;8.054;2022-09-03T13:41:29;30.10;78.50
8953;DHT22;4511;50.890;8.054;2022-09-03T13:44:04;29.60;79.00
8953;DHT22;4511;50.890;8.054;2022-09-03T13:46:40;29.40;79.90
8953;DHT22;4511;50.890;8.054;2022-09-03T13:49:19;28.90;80.00
8953;DHT22;4511;50.890;8.054;2022-09-03T13:52:10;29.20;81.10
8953;DHT22;4511;50.890;8.054;2022-09-03T13:54:43;30.20;78.30
8953;DHT22;4511;50.890;8.054;2022-09-03T13:57:24;30.50;77.50
8953;DHT22;4511;50.890;8.054;2022-09-03T13:59:57;30.10;76.90
8953;DHT22;4511;50.890;8.054;2022-09-03T14:02:32;29.60;77.40
8953;DHT22;4511;50.890;8.054;2022-09-03T14:05:07;29.20;78.30
8953;DHT22;4511;50.890;8.054;2022-09-03T14:07:46;28.80;78.90
8953;DHT22;4511;50.890;8.054;2022-09-03T14:10:22;28.40;80.00
8953;DHT22;4511;50.890;8.054;2022-09-03T14:13:00;27.60;81.50
8953;DHT22;4511;50.890;8.054;2022-09-03T14:15:32;27.20;83.30
8953;DHT22;4511;50.890;8.054;2022-09-03T14:18:09;27.00;84.40
8953;DHT22;4511;50.890;8.054;2022-09-03T14:20:43;26.80;84.70
8953;DHT22;4511;50.890;8.054;2022-09-03T14:23:24;26.40;85.50
8953;DHT22;4511;50.890;8.054;2022-09-03T14:25:52;26.10;87.10
8953;DHT22;4511;50.890;8.054;2022-09-03T14:28:28;26.00;87.80
8953;DHT22;4511;50.890;8.054;2022-09-03T14:31:02;25.90;88.50
8953;DHT22;4511;50.890;8.054;2022-09-03T14:33:38;25.70;89.20
8953;DHT22;4511;50.890;8.054;2022-09-03T14:36:13;25.60;90.00
8953;DHT22;4511;50.890;8.054;2022-09-03T14:42:07;25.40;90.70
8953;DHT22;4511;50.890;8.054;2022-09-03T14:44:56;25.50;90.50
8953;DHT22;4511;50.890;8.054;2022-09-03T14:47:37;25.50;90.80
8953;DHT22;4511;50.890;8.054;2022-09-03T14:50:13;25.60;90.90
8953;DHT22;4511;50.890;8.054;2022-09-03T14:53:09;25.60;91.00
8953;DHT22;4511;50.890;8.054;2022-09-03T14:55:54;25.90;91.10
8953;DHT22;4511;50.890;8.054;2022-09-03T14:58:34;26.60;90.70
8953;DHT22;4511;50.890;8.054;2022-09-03T15:01:10;27.80;88.60
8953;DHT22;4511;50.890;8.054;2022-09-03T15:03:54;27.90;87.10
8953;DHT22;4511;50.890;8.054;2022-09-03T15:06:36;27.60;87.50
8953;DHT22;4511;50.890;8.054;2022-09-03T15:09:17;27.30;88.20
8953;DHT22;4511;50.890;8.054;2022-09-03T15:11:50;26.80;89.30
8953;DHT22;4511;50.890;8.054;2022-09-03T15:14:23;26.60;90.10
8953;DHT22;4511;50.890;8.054;2022-09-03T15:17:16;26.30;90.50
8953;DHT22;4511;50.890;8.054;2022-09-03T15:22:45;25.70;91.40
8953;DHT22;4511;50.890;8.054;2022-09-03T15:25:23;25.70;91.50
8953;DHT22;4511;50.890;8.054;2022-09-03T15:28:04;25.70;91.50
8953;DHT22;4511;50.890;8.054;2022-09-03T15:30:35;25.80;91.40
8953;DHT22;4511;50.890;8.054;2022-09-03T15:33:12;25.70;91.50
8953;DHT22;4511;50.890;8.054;2022-09-03T15:35:55;25.60;91.70
8953;DHT22;4511;50.890;8.054;2022-09-03T15:38:38;25.40;92.00
8953;DHT22;4511;50.890;8.054;2022-09-03T15:41:09;25.20;92.30
8953;DHT22;4511;50.890;8.054;2022-09-03T15:43:38;25.20;92.40
8953;DHT22;4511;50.890;8.054;2022-09-03T15:46:10;25.10;92.50
8953;DHT22;4511;50.890;8.054;2022-09-03T15:48:48;25.10;92.60
8953;DHT22;4511;50.890;8.054;2022-09-03T15:51:19;25.10;92.70
8953;DHT22;4511;50.890;8.054;2022-09-03T15:53:51;25.00;92.80
8953;DHT22;4511;50.890;8.054;2022-09-03T15:56:24;25.00;92.90
8953;DHT22;4511;50.890;8.054;2022-09-03T15:58:59;25.00;92.90
8953;DHT22;4511;50.890;8.054;2022-09-03T16:01:33;24.90;92.80
8953;DHT22;4511;50.890;8.054;2022-09-03T16:04:08;24.90;92.90
8953;DHT22;4511;50.890;8.054;2022-09-03T16:06:49;24.80;93.20
8953;DHT22;4511;50.890;8.054;2022-09-03T16:09:27;24.80;93.30
8953;DHT22;4511;50.890;8.054;2022-09-03T16:12:00;24.60;93.40
8953;DHT22;4511;50.890;8.054;2022-09-03T16:14:36;24.60;93.40
8953;DHT22;4511;50.890;8.054;2022-09-03T16:17:12;24.60;93.40
8953;DHT22;4511;50.890;8.054;2022-09-03T16:19:48;24.50;93.70
8953;DHT22;4511;50.890;8.054;2022-09-03T16:22:25;24.30;93.90
8953;DHT22;4511;50.890;8.054;2022-09-03T16:24:54;24.40;93.80
8953;DHT22;4511;50.890;8.054;2022-09-03T16:27:28;24.50;93.70
8953;DHT22;4511;50.890;8.054;2022-09-03T16:29:59;24.50;93.80
8953;DHT22;4511;50.890;8.054;2022-09-03T16:32:45;24.60;93.60
8953;DHT22;4511;50.890;8.054;2022-09-03T16:35:23;24.60;93.70
8953;DHT22;4511;50.890;8.054;2022-09-03T16:38:14;24.60;94.10
8953;DHT22;4511;50.890;8.054;2022-09-03T16:40:47;24.60;94.00
8953;DHT22;4511;50.890;8.054;2022-09-03T16:43:23;24.70;94.20
8953;DHT22;4511;50.890;8.054;2022-09-03T16:46:02;24.70;94.20